Time;durP1;ratioP1;P1;durP2;ratioP2;P2;SDS_P1;SDS_P2;PMS_P1;PMS_P2;Temp;Humidity;BMP_temperature;BMP_pressure;BME280_temperature;BME280_humidity;BME280_pressure;Samples;Min_cycle;Max_cycle;Signal;HPM_P1;HPM_P2
2022/05/08 00:00:28;;;;;;;12.98;8.55;;;15.00;99.90;;;13.25;100.00;101462.59;4989092;28;20136;-88
2022/05/08 00:02:58;;;;;;;17.08;8.57;;;15.00;99.90;;;13.14;100.00;101450.19;4991796;28;20137;-89
2022/05/08 00:05:26;;;;;;;14.15;7.20;;;14.80;99.90;;;13.08;100.00;101459.13;5006005;28;20050;-90
2022/05/08 00:07:53;;;;;;;16.40;7.60;;;14.80;99.90;;;13.07;100.00;101471.06;5020083;28;20041;-90
2022/05/08 00:10:21;;;;;;;11.98;7.55;;;14.80;99.90;;;13.04;100.00;101474.13;5001900;28;20074;-89
2022/05/08 00:12:49;;;;;;;11.35;6.22;;;14.80;99.90;;;13.02;100.00;101468.00;5008883;28;20038;-90
2022/05/08 00:15:16;;;;;;;11.70;6.47;;;14.70;99.90;;;12.97;100.00;101460.34;5006555;28;20046;-90
2022/05/08 00:17:44;;;;;;;11.25;6.53;;;14.70;99.90;;;12.87;100.00;101457.81;5009053;28;20121;-89
2022/05/08 00:20:13;;;;;;;13.15;6.53;;;14.70;99.90;;;12.93;100.00;101463.59;5008491;28;20050;-90
2022/05/08 00:22:44;;;;;;;13.30;6.38;;;14.70;99.90;;;12.89;100.00;101463.97;5009276;28;20072;-91
2022/05/08 00:25:12;;;;;;;13.32;6.10;;;14.70;99.90;;;12.84;100.00;101454.59;5011995;28;20057;-90
2022/05/08 00:27:39;;;;;;;13.32;6.38;;;14.70;99.90;;;12.88;100.00;101459.50;5008402;28;20540;-89
2022/05/08 00:30:09;;;;;;;17.23;6.90;;;14.60;99.90;;;12.86;100.00;101464.31;5011237;28;20050;-89
2022/05/08 00:32:36;;;;;;;14.07;6.25;;;14.60;99.90;;;12.81;100.00;101455.81;5008476;28;20101;-90
2022/05/08 00:35:04;;;;;;;11.95;6.15;;;14.60;99.90;;;12.82;100.00;101457.50;4994514;28;20097;-89
2022/05/08 00:37:33;;;;;;;16.15;6.70;;;14.60;99.90;;;12.82;100.00;101456.66;4993199;28;20034;-89
2022/05/08 00:40:00;;;;;;;15.02;6.57;;;14.60;99.90;;;12.74;100.00;101453.94;4992921;28;20046;-90
2022/05/08 00:42:28;;;;;;;16.50;6.70;;;14.50;99.90;;;12.76;100.00;101458.22;5009495;28;20100;-90
2022/05/08 00:44:55;;;;;;;15.15;6.55;;;14.50;99.90;;;12.71;100.00;101457.88;5004544;28;20066;-90
2022/05/08 00:47:23;;;;;;;15.50;6.40;;;14.50;99.90;;;12.73;100.00;101454.97;4994485;28;20038;-90
2022/05/08 00:49:51;;;;;;;12.43;6.32;;;14.40;99.90;;;12.72;100.00;101459.59;5011512;28;20050;-89
2022/05/08 00:52:18;;;;;;;15.35;6.03;;;14.40;99.90;;;12.67;100.00;101454.63;5000814;28;20077;-89
2022/05/08 00:54:47;;;;;;;12.05;5.75;;;14.40;99.90;;;12.60;100.00;101455.50;5008870;28;20046;-89
2022/05/08 00:57:15;;;;;;;14.18;6.13;;;14.40;99.90;;;12.55;100.00;101457.94;4993074;28;20061;-90
2022/05/08 00:59:42;;;;;;;13.05;6.30;;;14.30;99.90;;;12.56;100.00;101457.72;5007648;28;20557;-90
2022/05/08 01:02:10;;;;;;;13.15;5.88;;;14.30;99.90;;;12.53;100.00;101463.56;5027607;28;20132;-89
2022/05/08 01:04:37;;;;;;;9.57;5.75;;;14.20;99.90;;;12.45;100.00;101458.97;5006505;28;20470;-89
2022/05/08 01:07:05;;;;;;;15.32;6.25;;;14.20;99.90;;;12.48;100.00;101465.97;4992405;28;20400;-88
2022/05/08 01:09:33;;;;;;;16.02;6.50;;;14.20;99.90;;;12.46;100.00;101460.66;5000402;28;20096;-90
2022/05/08 01:12:02;;;;;;;12.05;6.25;;;14.20;99.90;;;12.44;100.00;101461.88;5011835;28;20160;-89
2022/05/08 01:14:29;;;;;;;12.55;6.80;;;14.20;99.90;;;12.37;100.00;101463.59;5008130;28;20043;-89
2022/05/08 01:16:57;;;;;;;15.82;6.68;;;14.10;99.90;;;12.23;100.00;101459.69;5022783;28;20042;-89
2022/05/08 01:19:24;;;;;;;12.65;7.00;;;14.00;99.90;;;12.26;100.00;101460.19;5011693;28;20183;-89
2022/05/08 01:21:53;;;;;;;15.73;6.97;;;14.00;99.90;;;12.28;100.00;101465.47;5011569;28;20136;-89
2022/05/08 01:24:22;;;;;;;12.20;6.90;;;14.00;99.90;;;12.20;100.00;101466.31;5009047;28;20046;-88
2022/05/08 01:26:49;;;;;;;17.55;6.88;;;14.00;99.90;;;12.11;100.00;101465.50;4991855;28;20133;-89
2022/05/08 01:29:18;;;;;;;14.18;6.97;;;13.90;99.90;;;12.12;100.00;101472.63;5004329;28;20549;-89
2022/05/08 01:31:45;;;;;;;16.73;7.50;;;13.90;99.90;;;12.11;100.00;101476.41;5007811;28;20050;-89
2022/05/08 01:34:13;;;;;;;15.93;7.88;;;13.90;99.90;;;12.11;100.00;101476.41;5001772;28;20140;-89
2022/05/08 01:36:41;;;;;;;15.32;7.63;;;13.90;99.90;;;12.09;100.00;101470.28;5011546;28;20153;-90
2022/05/08 01:39:10;;;;;;;13.38;6.65;;;13.90;99.90;;;12.08;100.00;101474.00;5007159;28;20092;-89
2022/05/08 01:41:37;;;;;;;15.45;7.30;;;13.80;99.90;;;12.07;100.00;101472.31;4994874;28;20045;-88
2022/05/08 01:44:06;;;;;;;16.30;7.88;;;13.90;99.90;;;12.05;100.00;101477.09;4992398;28;20542;-90
2022/05/08 01:46:33;;;;;;;16.13;7.80;;;13.80;99.90;;;12.03;100.00;101479.16;4997698;28;20117;-90
2022/05/08 01:48:59;;;;;;;12.98;7.35;;;13.80;99.90;;;12.00;100.00;101473.19;5010510;28;20049;-90
2022/05/08 01:51:27;;;;;;;14.85;7.72;;;13.70;99.90;;;11.99;100.00;101475.03;5011205;28;20049;-88
2022/05/08 01:53:54;;;;;;;16.67;7.80;;;13.70;99.90;;;11.96;100.00;101472.66;4991862;28;20105;-90
2022/05/08 01:56:23;;;;;;;16.85;8.48;;;13.80;99.90;;;12.02;100.00;101479.31;4994711;28;20122;-90
2022/05/08 01:58:50;;;;;;;18.50;8.30;;;13.70;99.90;;;12.00;100.00;101482.22;5000449;28;20050;-89
2022/05/08 02:01:18;;;;;;;19.75;8.48;;;13.70;99.90;;;11.94;100.00;101480.16;5008899;28;20054;-89
2022/05/08 02:03:46;;;;;;;17.33;8.63;;;13.70;99.90;;;11.95;100.00;101484.59;5011079;28;20437;-90
2022/05/08 02:06:16;;;;;;;15.25;8.63;;;13.60;99.90;;;11.88;100.00;101484.38;5007174;28;20038;-90
2022/05/08 02:08:47;;;;;;;16.17;8.60;;;13.60;99.90;;;11.81;100.00;101490.69;4998342;28;20524;-89
2022/05/08 02:11:14;;;;;;;21.83;9.40;;;13.60;99.90;;;11.77;100.00;101500.25;4995477;28;20100;-89
2022/05/08 02:13:43;;;;;;;14.68;9.57;;;13.50;99.90;;;11.70;100.00;101489.97;5010968;28;20096;-89
2022/05/08 02:16:12;;;;;;;15.00;9.50;;;13.50;99.90;;;11.71;100.00;101496.31;5010172;28;20084;-89
2022/05/08 02:18:39;;;;;;;21.85;10.93;;;13.50;99.90;;;11.73;100.00;101505.19;4999262;28;20038;-88
2022/05/08 02:21:06;;;;;;;15.82;9.80;;;13.40;99.90;;;11.69;100.00;101499.19;5007174;28;20104;-89
2022/05/08 02:23:34;;;;;;;19.48;10.07;;;13.50;99.90;;;11.69;100.00;101503.78;5027090;28;20104;-89
2022/05/08 02:26:01;;;;;;;18.90;10.35;;;13.40;99.90;;;11.68;100.00;101491.19;5009654;28;20050;-89
2022/05/08 02:28:28;;;;;;;19.45;10.00;;;13.40;99.90;;;11.66;100.00;101496.78;5009916;28;20050;-89
2022/05/08 02:30:57;;;;;;;18.70;10.40;;;13.40;99.90;;;11.60;100.00;101500.19;5011216;28;20053;-90
2022/05/08 02:33:26;;;;;;;17.27;10.68;;;13.30;99.90;;;11.53;100.00;101499.16;4991269;28;20058;-89
2022/05/08 02:35:53;;;;;;;20.45;10.88;;;13.30;99.90;;;11.48;100.00;101504.25;5002948;28;20038;-89
2022/05/08 02:38:20;;;;;;;23.13;12.00;;;13.30;99.90;;;11.47;100.00;101506.13;5006809;28;20184;-89
2022/05/08 02:40:48;;;;;;;22.92;11.90;;;13.30;99.90;;;11.53;100.00;101505.44;5011947;28;20069;-89
2022/05/08 02:43:17;;;;;;;19.60;11.20;;;13.30;99.90;;;11.55;100.00;101513.47;5009991;28;20462;-89
2022/05/08 02:45:45;;;;;;;20.52;12.50;;;13.30;99.90;;;11.56;100.00;101512.47;5009219;28;20133;-90
2022/05/08 02:48:14;;;;;;;20.23;11.60;;;13.30;99.90;;;11.59;100.00;101512.09;5006414;28;20125;-89
2022/05/08 02:50:41;;;;;;;18.50;12.30;;;13.30;99.90;;;11.54;100.00;101519.97;4990530;28;20051;-89
2022/05/08 02:53:10;;;;;;;22.52;13.48;;;13.30;99.90;;;11.54;100.00;101509.91;5006088;28;20049;-89
2022/05/08 03:33:53;;;;;;;29.50;18.15;;;12.70;99.90;;;10.90;100.00;101520.38;5403910;23;20057;-95
2022/05/08 03:36:21;;;;;;;31.52;17.40;;;12.70;99.90;;;10.94;100.00;101516.28;5031056;28;20045;-94
2022/05/08 03:39:13;;;;;;;35.97;19.67;;;12.60;99.90;;;10.88;100.00;101522.41;5018144;28;20045;-95
2022/05/08 03:41:41;;;;;;;35.53;19.63;;;12.70;99.90;;;10.82;100.00;101527.66;4992657;28;20045;-93
2022/05/08 03:44:09;;;;;;;33.28;18.13;;;12.70;99.90;;;10.83;100.00;101530.19;5008641;28;20437;-94
2022/05/08 03:46:37;;;;;;;30.77;17.88;;;12.70;99.90;;;10.77;100.00;101530.84;4994110;28;20171;-94
2022/05/08 03:49:06;;;;;;;35.90;17.95;;;12.60;99.90;;;10.79;100.00;101533.41;4991738;28;20047;-94
2022/05/08 03:51:33;;;;;;;31.63;17.08;;;12.70;99.90;;;10.73;100.00;101537.63;4991898;28;20050;-95
2022/05/08 03:54:05;;;;;;;31.85;15.43;;;12.60;99.90;;;10.63;100.00;101534.16;4992169;28;20081;-95
2022/05/08 03:56:33;;;;;;;26.73;15.85;;;12.60;99.90;;;10.70;100.00;101537.94;5027248;28;20081;-94
2022/05/08 03:59:00;;;;;;;30.25;15.55;;;12.50;99.90;;;10.67;100.00;101527.38;5003098;28;20479;-93
2022/05/08 04:01:29;;;;;;;28.95;14.40;;;12.50;99.90;;;10.62;100.00;101527.84;5005879;28;20073;-94
2022/05/08 04:03:58;;;;;;;21.73;12.68;;;12.50;99.90;;;10.64;100.00;101530.41;5019328;28;20080;-95
2022/05/08 04:06:27;;;;;;;26.30;13.82;;;12.50;99.90;;;10.60;99.13;101526.31;5015930;28;20148;-94
2022/05/08 04:08:55;;;;;;;26.10;12.55;;;12.40;99.90;;;10.59;99.87;101533.63;5010514;28;20053;-94
2022/05/08 04:11:29;;;;;;;22.48;13.15;;;12.30;99.90;;;10.51;98.68;101537.16;5013838;28;20461;-94
2022/05/08 04:13:57;;;;;;;27.05;13.93;;;12.40;99.90;;;10.52;99.37;101538.84;4995850;28;20053;-94
2022/05/08 04:16:27;;;;;;;27.10;14.23;;;12.40;99.90;;;10.41;99.63;101536.38;5007298;28;20057;-95
2022/05/08 04:18:55;;;;;;;25.00;13.57;;;12.30;99.90;;;10.52;100.00;101541.56;4999012;28;20289;-94
2022/05/08 04:21:25;;;;;;;34.22;15.55;;;12.30;99.90;;;10.38;99.83;101542.16;4996153;28;20050;-94
2022/05/08 04:26:41;;;;;;;24.13;14.13;;;12.30;99.90;;;10.57;100.00;101547.41;4995388;28;20051;-94
2022/05/08 04:29:12;;;;;;;25.17;14.60;;;12.40;99.90;;;10.55;100.00;101543.97;4997926;28;20046;-94
2022/05/08 04:31:45;;;;;;;30.35;14.35;;;12.40;99.90;;;10.61;100.00;101547.09;5014263;28;20056;-95
2022/05/08 04:34:14;;;;;;;27.45;14.73;;;12.50;99.90;;;10.63;100.00;101556.78;5013685;28;20057;-93
2022/05/08 04:36:44;;;;;;;;;;;12.50;99.90;;;10.64;99.36;101539.47;5014890;28;20050;-94
2022/05/08 04:39:13;;;;;;;26.08;11.55;;;12.50;99.90;;;10.59;98.20;101549.13;5014644;28;19921;-94
2022/05/08 04:41:40;;;;;;;30.17;11.93;;;12.40;99.90;;;10.56;97.99;101551.13;5010950;28;20049;-94
2022/05/08 04:44:08;;;;;;;27.23;12.02;;;12.40;99.90;;;10.57;98.26;101557.44;4995058;28;20046;-95
2022/05/08 04:46:35;;;;;;;29.00;13.55;;;12.50;99.90;;;10.65;98.92;101553.91;4994922;28;20054;-94
2022/05/08 04:49:04;;;;;;;24.73;10.38;;;12.50;99.90;;;10.62;96.99;101570.56;4995831;28;20038;-94
2022/05/08 04:51:31;;;;;;;24.33;9.82;;;12.50;99.90;;;10.57;96.62;101571.88;5011165;28;20114;-95
2022/05/08 04:54:04;;;;;;;27.33;10.15;;;12.40;99.90;;;10.54;95.40;101569.47;5014528;28;20053;-92
2022/05/08 04:56:36;;;;;;;25.77;8.80;;;12.50;99.90;;;10.47;95.71;101576.59;4996382;28;20053;-91
2022/05/08 04:59:04;;;;;;;24.27;8.27;;;12.40;99.90;;;10.45;95.09;101581.34;5005448;28;20046;-92
2022/05/08 05:01:35;;;;;;;19.95;7.85;;;12.40;99.90;;;10.40;93.25;101583.66;5013107;28;20077;-93
2022/05/08 05:04:06;;;;;;;30.05;8.48;;;12.30;99.90;;;10.34;93.99;101592.47;5010305;28;20046;-92
2022/05/08 05:06:48;;;;;;;29.48;7.80;;;12.30;99.90;;;10.40;94.07;101590.97;4997529;28;20063;-93
2022/05/08 05:10:14;;;;;;;30.75;7.28;;;12.30;99.90;;;10.40;94.59;101588.25;5004671;28;20030;-93
2022/05/08 05:30:21;;;;;;;25.30;6.43;;;12.30;99.90;;;10.51;97.05;101604.34;4912745;29;20055;-93
2022/05/08 05:33:46;;;;;;;27.35;7.68;;;12.50;99.90;;;10.52;95.40;101598.72;4922254;29;20154;-95
2022/05/08 05:36:36;;;;;;;25.00;6.55;;;12.50;99.90;;;10.44;95.19;101606.81;4882926;29;20123;-94
2022/05/08 06:24:51;;;;;;;;;;;;;;;;;;;;;
2022/05/08 06:27:58;;;;;;;34.15;8.30;;;12.80;98.80;;;10.65;92.20;101643.75;4964424;28;20074;-95
2022/05/08 06:39:38;;;;;;;;;;;;;;;;;;;;;
2022/05/08 06:45:44;;;;;;;;;;;;;;;;;;;;;
2022/05/08 06:48:57;;;;;;;;;;;;;;;;;;;;;
2022/05/08 06:51:55;;;;;;;25.90;7.07;;;12.70;97.70;;;10.68;91.93;101651.59;5244379;23;20053;-96
2022/05/08 06:54:23;;;;;;;26.50;7.40;;;12.90;98.60;;;10.78;91.78;101646.94;5018979;28;20136;-94
2022/05/08 06:56:53;;;;;;;30.88;7.50;;;13.00;97.90;;;10.72;91.59;101647.56;5011736;28;20568;-95
2022/05/08 07:02:07;;;;;;;30.98;8.27;;;13.00;97.40;;;10.86;91.84;101652.44;5012238;28;20081;-95
2022/05/08 07:04:35;;;;;;;25.63;7.82;;;13.10;97.90;;;10.93;93.52;101656.22;5012193;28;20049;-95
2022/05/08 07:07:05;;;;;;;33.45;8.40;;;13.10;99.20;;;11.04;93.18;101665.16;5011371;28;20495;-94
2022/05/08 07:09:35;;;;;;;26.10;7.60;;;13.10;99.10;;;11.13;93.79;101656.03;5011130;28;20108;-95
2022/05/08 07:12:02;;;;;;;30.05;6.90;;;13.20;99.30;;;11.16;91.77;101669.34;5028094;28;20516;-93
2022/05/08 07:14:30;;;;;;;26.50;7.35;;;13.30;97.90;;;11.09;90.93;101669.09;5011806;28;20104;-93
2022/05/08 07:16:57;;;;;;;28.02;7.72;;;13.30;96.90;;;11.20;91.07;101669.88;5011612;28;20056;-95
2022/05/08 07:19:30;;;;;;;22.73;6.70;;;13.40;97.30;;;11.19;89.89;101676.31;5011704;28;20041;-95
2022/05/08 07:22:32;;;;;;;;;;;;;;;;;;;;;
2022/05/08 07:26:05;;;;;;;;;;;;;;;;;;;;;
2022/05/08 07:28:41;;;;;;;25.88;6.10;;;13.60;95.30;;;11.34;88.42;101672.84;4952951;28;20042;-94
2022/05/08 07:38:17;;;;;;;32.63;7.05;;;13.70;95.10;;;11.41;86.34;101677.66;4891995;29;20501;-93
2022/05/08 07:40:47;;;;;;;22.05;6.28;;;13.70;93.80;;;11.23;85.21;101677.72;4873227;29;20151;-90
2022/05/08 07:43:16;;;;;;;20.27;6.75;;;13.60;92.70;;;11.26;85.95;101686.41;4870700;29;20057;-90
2022/05/08 07:45:44;;;;;;;20.38;5.85;;;13.50;93.70;;;11.42;86.04;101684.81;4884156;29;20048;-93
2022/05/08 07:48:13;;;;;;;27.20;6.68;;;13.70;93.80;;;11.45;85.49;101690.78;4883886;29;20048;-91
2022/05/08 07:50:42;;;;;;;25.55;6.53;;;13.70;93.40;;;11.41;84.09;101686.69;4898167;29;20084;-91
2022/05/08 07:53:09;;;;;;;24.20;6.80;;;13.60;92.70;;;11.51;84.92;101694.75;4885142;29;20056;-94
2022/05/08 07:55:40;;;;;;;26.23;6.88;;;13.70;93.20;;;11.71;85.13;101693.50;4885516;29;20071;-95
2022/05/08 07:58:09;;;;;;;22.33;5.97;;;13.90;93.20;;;11.77;85.33;101702.06;4908912;28;20051;-92
2022/05/08 08:00:37;;;;;;;27.52;7.53;;;14.00;93.40;;;11.75;85.62;101704.94;4950230;28;20047;-94
2022/05/08 08:03:04;;;;;;;30.10;7.32;;;14.00;93.60;;;11.94;86.66;101703.88;4957830;29;20500;-93
2022/05/08 08:05:40;;;;;;;25.02;7.43;;;14.20;93.80;;;11.90;85.36;101699.75;4990796;28;20510;-93
2022/05/08 08:08:47;;;;;;;23.67;6.03;;;14.20;93.00;;;11.87;84.64;101708.22;4999570;28;20414;-95
2022/05/08 08:11:45;;;;;;;20.50;6.18;;;14.20;92.50;;;11.79;86.00;101702.75;5014305;28;20057;-95
2022/05/08 08:14:27;;;;;;;19.88;6.40;;;14.10;93.60;;;11.98;86.93;101716.16;4999864;28;20045;-95
2022/05/08 08:17:45;;;;;;;26.15;7.03;;;14.40;93.90;;;12.06;85.58;101721.63;5019366;28;20042;-96
2022/05/08 09:57:20;;;;;;;16.38;3.90;;;15.10;81.90;;;12.82;69.33;101724.38;6136334;23;20356;-90
2022/05/08 10:00:11;;;;;;;11.82;3.40;;;15.00;81.30;;;12.79;67.58;101721.97;5136261;22;20137;-96
2022/05/08 10:02:43;;;;;;;10.77;3.53;;;15.00;79.10;;;12.69;67.96;101724.88;5014687;28;20058;-95
2022/05/08 10:06:00;;;;;;;21.85;4.40;;;14.80;80.20;;;12.80;70.62;101724.53;5007127;28;20069;-94
2022/05/08 10:33:07;;;;;;;14.13;3.78;;;15.00;79.80;;;13.00;68.87;101716.00;5009802;23;20035;-92
2022/05/08 10:35:35;;;;;;;14.70;3.83;;;15.10;80.90;;;13.00;65.89;101716.00;4992636;28;20570;-92
2022/05/08 10:38:25;;;;;;;16.73;3.47;;;15.20;78.20;;;13.05;66.88;101724.53;4988671;28;20066;-92
2022/05/08 10:40:55;;;;;;;11.55;3.58;;;15.30;79.00;;;13.02;67.98;101706.63;4976156;28;20078;-91
2022/05/08 10:43:30;;;;;;;14.15;3.28;;;15.20;78.90;;;13.06;66.52;101709.84;4972561;28;20058;-91
2022/05/08 11:03:36;;;;;;;11.48;2.70;;;15.20;81.70;;;13.19;64.74;101699.22;5411490;22;20061;-94
2022/05/08 11:06:08;;;;;;;11.90;3.28;;;15.20;77.20;;;13.18;62.25;101702.16;5026740;28;20053;-94
2022/05/08 11:08:37;;;;;;;12.48;3.70;;;15.20;75.00;;;13.16;67.38;101691.41;5011288;28;20045;-94
2022/05/08 11:11:09;;;;;;;11.40;3.17;;;15.20;79.60;;;13.19;63.30;101693.78;5006439;28;20045;-92
2022/05/08 11:13:46;;;;;;;9.70;2.80;;;15.20;76.40;;;13.18;62.88;101691.22;5012145;28;20096;-94
2022/05/08 11:16:29;;;;;;;15.10;3.00;;;15.10;75.20;;;13.22;61.40;101685.22;5011386;28;20045;-95
2022/05/08 11:19:01;;;;;;;10.40;3.33;;;15.10;74.40;;;13.22;61.62;101685.22;5010932;28;20046;-94
2022/05/08 11:21:29;;;;;;;11.05;2.70;;;15.10;75.20;;;13.29;63.95;101683.53;5011802;28;20046;-94
2022/05/08 11:24:00;;;;;;;9.45;3.00;;;15.10;77.00;;;13.27;62.61;101680.09;5026107;28;20046;-94
2022/05/08 11:26:35;;;;;;;9.70;3.08;;;15.10;74.80;;;13.30;59.04;101679.78;5010778;28;20056;-94
2022/05/08 11:29:16;;;;;;;7.75;2.60;;;15.10;71.60;;;13.26;64.60;101672.91;5009167;28;20061;-93
2022/05/08 11:36:04;;;;;;;9.10;2.63;;;15.00;77.20;;;13.38;64.78;101683.53;5011938;28;20054;-96
2022/05/08 11:37:24;;;;;;;9.70;2.28;;;15.30;74.10;;;13.34;61.98;101674.81;4991962;28;20038;-94
2022/05/08 11:39:58;;;;;;;12.48;3.13;;;15.30;75.90;;;13.45;58.47;101665.41;5006266;28;20049;-95
2022/05/08 11:42:27;;;;;;;12.27;2.78;;;15.20;71.50;;;13.41;62.34;101664.03;5019119;28;20077;-95
2022/05/08 11:45:08;;;;;;;9.98;3.17;;;15.30;75.50;;;13.34;64.85;101666.63;5020382;28;20058;-94
2022/05/08 11:47:37;;;;;;;10.57;3.10;;;15.30;77.80;;;13.49;63.66;101659.38;5011776;28;20046;-95
2022/05/08 11:50:09;;;;;;;15.43;2.90;;;15.30;76.90;;;13.51;63.89;101663.84;5010764;28;20038;-94
2022/05/08 11:52:37;;;;;;;9.52;3.00;;;15.30;77.10;;;13.48;63.20;101663.16;5010821;28;20045;-94
2022/05/08 11:55:09;;;;;;;15.52;3.03;;;15.40;76.40;;;13.43;64.88;101656.53;5010848;28;20042;-94
2022/05/08 11:57:46;;;;;;;8.70;2.97;;;15.40;77.40;;;13.41;64.40;101661.31;5009204;28;20046;-95
2022/05/08 12:00:31;;;;;;;11.38;3.05;;;15.40;77.10;;;13.50;64.69;101663.00;5009373;28;20064;-95
2022/05/08 12:03:01;;;;;;;11.68;3.17;;;15.40;77.80;;;13.60;64.47;101649.13;5009738;28;20053;-95
2022/05/08 12:05:30;;;;;;;16.52;3.63;;;15.50;77.30;;;13.61;64.41;101659.88;5010405;28;20053;-94
2022/05/08 12:08:00;;;;;;;13.82;3.67;;;15.50;78.10;;;13.57;64.52;101642.09;5005983;28;20095;-94
2022/05/08 12:10:40;;;;;;;11.82;3.03;;;15.40;77.40;;;13.52;66.85;101644.53;5011146;28;20100;-95
2022/05/08 12:13:08;;;;;;;9.77;3.05;;;15.50;79.30;;;13.49;67.83;101642.13;5010943;28;20054;-93
2022/05/08 12:15:37;;;;;;;11.35;3.22;;;15.50;79.90;;;13.44;68.60;101639.06;5011305;28;20041;-94
2022/05/08 12:18:05;;;;;;;13.32;3.85;;;15.50;81.00;;;13.47;68.79;101641.47;5012037;28;20103;-94
2022/05/08 12:20:43;;;;;;;7.63;2.80;;;15.50;81.10;;;13.61;67.05;101638.00;5014659;28;20192;-96
2022/05/08 12:31:45;;;;;;;10.30;3.40;;;15.50;78.70;;;13.71;67.72;101626.84;5202555;22;20057;-96
2022/05/08 13:02:08;;;;;;;14.35;3.40;;;15.80;81.70;;;13.80;70.76;101603.00;5011433;28;20050;-93
2022/05/08 15:01:18;;;;;;;7.22;3.00;;;16.00;81.90;;;14.35;67.28;101525.28;5429747;23;20046;-89
2022/05/08 15:03:46;;;;;;;9.80;3.00;;;16.10;80.00;;;14.35;68.10;101513.50;5024759;28;20156;-89
2022/05/08 15:06:13;;;;;;;13.07;2.83;;;16.10;80.90;;;14.27;68.66;101522.63;5013481;28;20108;-89
2022/05/08 15:08:42;;;;;;;8.07;2.53;;;16.10;81.30;;;14.41;64.78;101510.00;5008363;28;20840;-89
2022/05/08 15:11:09;;;;;;;10.02;2.40;;;16.20;77.60;;;14.44;67.21;101513.22;4990706;28;20042;-89
2022/05/08 15:13:37;;;;;;;8.38;2.60;;;16.20;79.70;;;14.32;67.68;101517.47;5001084;28;20042;-89
2022/05/08 15:16:15;;;;;;;6.57;2.33;;;16.20;79.80;;;14.24;69.04;101518.38;5025353;28;20077;-89
2022/05/08 15:18:51;;;;;;;9.85;2.45;;;16.20;81.40;;;14.24;66.50;101518.38;5007896;28;20061;-89
2022/05/08 15:21:20;;;;;;;9.75;2.47;;;16.10;78.40;;;14.29;67.95;101517.81;5008631;28;20077;-88
2022/05/08 15:23:50;;;;;;;8.88;2.25;;;16.10;80.10;;;14.23;68.58;101513.94;5025018;28;20042;-89
2022/05/08 15:26:18;;;;;;;8.27;2.47;;;16.20;80.50;;;14.33;65.41;101524.63;5008754;28;20123;-90
2022/05/08 15:28:46;;;;;;;6.78;2.50;;;16.20;78.50;;;14.67;62.68;101517.84;5009740;28;20505;-89
2022/05/08 15:31:19;;;;;;;11.27;2.72;;;16.30;76.00;;;14.67;64.84;101512.38;5008254;28;20399;-89
2022/05/08 15:33:48;;;;;;;6.78;2.50;;;16.40;78.00;;;14.49;66.31;101515.44;5006452;28;20050;-89
2022/05/08 15:36:15;;;;;;;9.50;2.50;;;16.30;79.40;;;14.38;67.42;101508.50;4990152;28;20089;-89
2022/05/08 15:38:43;;;;;;;6.90;2.45;;;16.30;80.20;;;14.25;68.24;101503.66;4990145;28;20038;-89
2022/05/08 15:41:10;;;;;;;11.30;2.50;;;16.20;81.00;;;14.24;68.66;101507.44;5005152;28;20426;-90
2022/05/08 15:43:37;;;;;;;7.22;2.08;;;16.20;81.20;;;14.43;65.98;101500.59;4988704;28;20161;-90
2022/05/08 15:46:05;;;;;;;9.07;2.47;;;16.20;78.50;;;14.53;67.40;101514.03;5001424;28;20046;-89
2022/05/08 15:48:35;;;;;;;8.63;2.63;;;16.30;80.30;;;14.48;64.69;101498.13;5010635;28;20041;-91
2022/05/08 15:51:02;;;;;;;8.18;2.60;;;16.30;77.40;;;14.53;65.36;101511.28;5000079;28;20053;-89
2022/05/08 15:53:31;;;;;;;12.88;2.60;;;16.30;77.70;;;14.54;66.23;101493.78;5011663;28;20046;-90
2022/05/08 15:56:03;;;;;;;12.25;2.88;;;16.40;78.80;;;14.45;67.43;101505.88;5011723;28;20034;-89
2022/05/08 15:58:31;;;;;;;6.93;2.35;;;16.30;80.10;;;14.45;67.09;101493.03;5011399;28;20495;-90
2022/05/08 16:00:58;;;;;;;10.07;3.30;;;16.30;79.40;;;14.58;66.22;101497.03;5007173;28;20047;-90
2022/05/08 16:03:25;;;;;;;8.60;2.40;;;16.30;78.40;;;14.53;66.78;101494.00;5003740;28;20069;-89
2022/05/08 16:05:54;;;;;;;7.80;2.40;;;16.30;78.50;;;14.47;67.34;101501.91;5010870;28;20054;-90
2022/05/08 16:08:21;;;;;;;7.35;2.65;;;16.30;80.10;;;14.32;67.98;101489.22;5012695;28;20072;-90
2022/05/08 16:10:48;;;;;;;8.88;2.53;;;16.20;81.10;;;14.27;68.79;101495.25;5008018;28;20069;-89
2022/05/08 16:24:20;;;;;;;10.60;2.50;;;16.20;80.60;;;14.46;66.37;101489.25;5009395;28;20042;-88
2022/05/08 16:26:48;;;;;;;8.82;2.50;;;16.20;79.80;;;14.69;61.80;101499.31;5010352;28;20042;-88
2022/05/08 16:29:15;;;;;;;10.38;2.20;;;16.30;76.10;;;14.82;63.29;101494.03;5009422;28;20100;-88
2022/05/08 16:31:43;;;;;;;8.48;2.35;;;16.40;76.80;;;14.72;65.22;101493.47;5011258;28;20053;-89
2022/05/08 16:34:10;;;;;;;14.02;2.33;;;16.40;78.20;;;14.54;66.57;101491.03;5009988;28;20494;-88
2022/05/08 16:36:39;;;;;;;5.60;2.15;;;16.30;79.50;;;14.41;67.59;101491.72;5009304;28;20052;-88
2022/05/08 16:39:07;;;;;;;7.88;2.22;;;16.20;80.40;;;14.40;64.60;101486.41;5006903;28;20081;-88
2022/05/08 16:41:34;;;;;;;7.05;2.53;;;16.20;77.60;;;14.61;65.48;101491.19;5010837;28;20463;-88
2022/05/08 16:44:06;;;;;;;8.48;2.70;;;16.30;78.20;;;14.46;67.20;101493.88;5010161;28;20042;-89
2022/05/08 16:46:36;;;;;;;7.75;2.40;;;16.30;80.00;;;14.56;65.62;101488.13;5007102;28;20096;-89
2022/05/08 16:49:03;;;;;;;7.22;2.05;;;16.30;78.00;;;14.56;64.99;101493.59;5009995;28;20046;-88
2022/05/08 16:51:33;;;;;;;9.35;2.65;;;16.30;78.50;;;14.85;62.44;101496.41;5009093;28;20545;-89
2022/05/08 16:54:02;;;;;;;8.35;2.08;;;16.40;76.70;;;14.93;61.72;101497.38;5009762;28;20117;-89
2022/05/08 16:56:30;;;;;;;9.77;2.65;;;16.50;76.00;;;15.05;60.88;101490.34;5025905;28;20053;-89
2022/05/08 16:58:57;;;;;;;17.65;9.10;;;16.50;74.60;;;14.82;62.91;101477.59;5024026;28;20049;-89
2022/05/08 17:01:25;;;;;;;15.68;9.45;;;16.50;76.70;;;14.70;65.05;101483.72;5039155;28;20410;-90
2022/05/08 17:03:56;;;;;;;8.90;4.35;;;16.50;78.00;;;14.65;65.50;101492.53;5024583;28;20038;-89
2022/05/08 17:06:24;;;;;;;6.97;1.95;;;16.40;78.70;;;14.67;64.88;101484.97;5010120;28;20049;-88
2022/05/08 17:08:51;;;;;;;6.03;2.05;;;16.40;77.40;;;14.73;63.29;101492.41;5011369;28;20092;-89
2022/05/08 17:11:20;;;;;;;8.93;2.30;;;16.40;76.00;;;14.72;64.79;101488.00;5011356;28;20504;-88
2022/05/08 17:13:47;;;;;;;7.18;2.00;;;16.40;77.70;;;14.69;62.86;101488.38;5009660;28;20341;-88
2022/05/08 17:16:15;;;;;;;8.15;2.50;;;16.40;76.20;;;14.63;64.97;101489.13;5010805;28;20042;-89
2022/05/08 17:18:42;;;;;;;7.88;2.55;;;16.40;77.60;;;14.80;63.73;101489.78;5009923;28;20078;-88
2022/05/08 17:21:09;;;;;;;8.70;2.22;;;16.40;76.40;;;14.70;65.20;101490.06;5010604;28;20040;-88
2022/05/08 17:23:38;;;;;;;8.40;2.30;;;16.40;78.60;;;14.55;66.34;101487.28;5011243;28;20045;-88
2022/05/08 17:26:06;;;;;;;8.43;2.10;;;16.30;79.70;;;14.46;66.93;101486.50;5006333;28;20540;-88
2022/05/08 17:28:46;;;;;;;7.50;2.58;;;16.30;79.50;;;14.41;67.11;101479.88;5011679;28;20038;-89
2022/05/08 17:31:14;;;;;;;5.93;1.95;;;16.20;80.00;;;14.34;67.76;101488.00;5007234;28;20052;-89
2022/05/08 17:33:41;;;;;;;7.00;2.10;;;16.20;80.90;;;14.30;68.07;101486.69;5011662;28;20061;-90
2022/05/08 17:36:08;;;;;;;8.80;2.42;;;16.20;81.30;;;14.39;66.04;101482.84;5010025;28;20069;-89
2022/05/08 17:38:37;;;;;;;7.10;2.20;;;16.20;79.30;;;14.40;67.06;101476.31;5011738;28;20100;-89
2022/05/08 17:41:05;;;;;;;6.60;2.00;;;16.10;79.60;;;14.35;67.73;101481.47;5018949;28;20050;-89
2022/05/08 17:43:35;;;;;;;12.75;2.63;;;16.10;81.00;;;14.29;68.41;101482.22;5009551;28;20046;-89